sensor_id;sensor_type;location;lat;lon;timestamp;pressure;altitude;pressure_sealevel;temperature;humidity
46778;BME280;32536;47.128;8.746;2022-09-29T00:00:54;90151.63;;;10.96;57.59
46778;BME280;32536;47.128;8.746;2022-09-29T00:03:21;90152.38;;;10.97;57.39
46778;BME280;32536;47.128;8.746;2022-09-29T00:05:52;90154.31;;;10.96;57.67
46778;BME280;32536;47.128;8.746;2022-09-29T00:08:23;90160.84;;;10.95;57.39
46778;BME280;32536;47.128;8.746;2022-09-29T00:10:52;90162.34;;;10.96;57.13
46778;BME280;32536;47.128;8.746;2022-09-29T00:13:19;90158.19;;;10.95;56.94
46778;BME280;32536;47.128;8.746;2022-09-29T00:16:00;90164.25;;;10.96;57.36
46778;BME280;32536;47.128;8.746;2022-09-29T00:18:28;90158.03;;;10.99;57.20
46778;BME280;32536;47.128;8.746;2022-09-29T00:21:08;90158.31;;;11.01;57.50
46778;BME280;32536;47.128;8.746;2022-09-29T00:23:37;90157.00;;;11.05;56.92
46778;BME280;32536;47.128;8.746;2022-09-29T00:26:09;90153.13;;;11.07;57.73
46778;BME280;32536;47.128;8.746;2022-09-29T00:28:40;90145.84;;;11.07;57.28
46778;BME280;32536;47.128;8.746;2022-09-29T00:31:10;90144.78;;;11.04;56.72
46778;BME280;32536;47.128;8.746;2022-09-29T00:33:38;90154.03;;;11.03;57.35
46778;BME280;32536;47.128;8.746;2022-09-29T00:36:11;90142.69;;;10.99;57.43
46778;BME280;32536;47.128;8.746;2022-09-29T00:38:40;90149.88;;;11.02;57.34
46778;BME280;32536;47.128;8.746;2022-09-29T00:41:13;90151.63;;;11.05;57.32
46778;BME280;32536;47.128;8.746;2022-09-29T00:43:58;90145.41;;;11.09;56.96
46778;BME280;32536;47.128;8.746;2022-09-29T00:48:58;90140.78;;;11.09;57.51
46778;BME280;32536;47.128;8.746;2022-09-29T00:51:29;90133.06;;;11.11;57.40
46778;BME280;32536;47.128;8.746;2022-09-29T00:53:58;90128.00;;;11.13;57.49
46778;BME280;32536;47.128;8.746;2022-09-29T00:56:26;90134.81;;;11.14;57.83
46778;BME280;32536;47.128;8.746;2022-09-29T00:58:56;90127.09;;;11.16;57.68
46778;BME280;32536;47.128;8.746;2022-09-29T01:01:29;90123.97;;;11.18;57.76
46778;BME280;32536;47.128;8.746;2022-09-29T01:04:05;90121.91;;;11.22;57.81
46778;BME280;32536;47.128;8.746;2022-09-29T01:06:50;90111.47;;;11.24;57.64
46778;BME280;32536;47.128;8.746;2022-09-29T01:09:24;90114.91;;;11.25;57.35
46778;BME280;32536;47.128;8.746;2022-09-29T01:11:57;90111.19;;;11.22;57.50
46778;BME280;32536;47.128;8.746;2022-09-29T01:14:26;90110.13;;;11.19;58.15
46778;BME280;32536;47.128;8.746;2022-09-29T01:16:54;90112.38;;;11.21;57.55
46778;BME280;32536;47.128;8.746;2022-09-29T01:19:40;90105.50;;;11.20;58.49
46778;BME280;32536;47.128;8.746;2022-09-29T01:28:38;90101.66;;;11.30;57.38
46778;BME280;32536;47.128;8.746;2022-09-29T01:33:58;90101.22;;;11.32;57.98
46778;BME280;32536;47.128;8.746;2022-09-29T01:39:39;90102.56;;;11.36;58.11
46778;BME280;32536;47.128;8.746;2022-09-29T01:42:18;90086.47;;;11.36;57.58
46778;BME280;32536;47.128;8.746;2022-09-29T01:44:54;90088.13;;;11.34;57.55
46778;BME280;32536;47.128;8.746;2022-09-29T01:47:37;90093.03;;;11.35;58.25
46778;BME280;32536;47.128;8.746;2022-09-29T01:50:20;90098.25;;;11.39;57.43
46778;BME280;32536;47.128;8.746;2022-09-29T01:52:57;90093.00;;;11.45;57.74
46778;BME280;32536;47.128;8.746;2022-09-29T01:55:30;90091.22;;;11.51;57.56
46778;BME280;32536;47.128;8.746;2022-09-29T01:58:01;90095.25;;;11.56;57.55
46778;BME280;32536;47.128;8.746;2022-09-29T02:00:34;90096.00;;;11.56;57.85
46778;BME280;32536;47.128;8.746;2022-09-29T02:03:08;90095.69;;;11.54;57.96
46778;BME280;32536;47.128;8.746;2022-09-29T02:05:51;90091.22;;;11.51;57.94
46778;BME280;32536;47.128;8.746;2022-09-29T02:08:27;90096.72;;;11.47;58.20
46778;BME280;32536;47.128;8.746;2022-09-29T02:11:15;90098.69;;;11.47;57.95
46778;BME280;32536;47.128;8.746;2022-09-29T02:13:48;90091.66;;;11.49;58.32
46778;BME280;32536;47.128;8.746;2022-09-29T02:16:22;90085.44;;;11.52;57.73
46778;BME280;32536;47.128;8.746;2022-09-29T02:18:54;90095.53;;;11.58;57.94
46778;BME280;32536;47.128;8.746;2022-09-29T02:21:26;90085.41;;;11.62;58.12
46778;BME280;32536;47.128;8.746;2022-09-29T02:23:54;90086.91;;;11.63;58.22
46778;BME280;32536;47.128;8.746;2022-09-29T02:26:23;90078.84;;;11.63;57.80
46778;BME280;32536;47.128;8.746;2022-09-29T02:28:53;90081.38;;;11.66;57.85
46778;BME280;32536;47.128;8.746;2022-09-29T02:31:20;90082.41;;;11.69;57.55
46778;BME280;32536;47.128;8.746;2022-09-29T02:33:47;90083.91;;;11.70;57.88
46778;BME280;32536;47.128;8.746;2022-09-29T02:36:20;90079.31;;;11.71;57.78
46778;BME280;32536;47.128;8.746;2022-09-29T02:39:02;90082.00;;;11.71;57.84
46778;BME280;32536;47.128;8.746;2022-09-29T02:45:24;90079.31;;;11.71;57.93
46778;BME280;32536;47.128;8.746;2022-09-29T02:48:11;90077.97;;;11.66;58.01
46778;BME280;32536;47.128;8.746;2022-09-29T02:50:47;90075.72;;;11.64;57.98
46778;BME280;32536;47.128;8.746;2022-09-29T02:59:20;90079.72;;;11.69;57.54
46778;BME280;32536;47.128;8.746;2022-09-29T03:01:56;90072.72;;;11.72;57.79
46778;BME280;32536;47.128;8.746;2022-09-29T03:04:25;90076.44;;;11.74;57.77
46778;BME280;32536;47.128;8.746;2022-09-29T03:06:53;90067.97;;;11.76;58.03
46778;BME280;32536;47.128;8.746;2022-09-29T03:09:20;90063.63;;;11.78;58.25
46778;BME280;32536;47.128;8.746;2022-09-29T03:11:47;90062.88;;;11.78;58.39
46778;BME280;32536;47.128;8.746;2022-09-29T03:14:13;90058.72;;;11.77;57.90
46778;BME280;32536;47.128;8.746;2022-09-29T03:16:40;90064.53;;;11.75;58.31
46778;BME280;32536;47.128;8.746;2022-09-29T03:19:08;90056.47;;;11.75;58.59
46778;BME280;32536;47.128;8.746;2022-09-29T03:21:35;90060.66;;;11.76;58.66
46778;BME280;32536;47.128;8.746;2022-09-29T03:24:01;90050.22;;;11.78;58.24
46778;BME280;32536;47.128;8.746;2022-09-29T03:26:28;90059.31;;;11.81;58.40
46778;BME280;32536;47.128;8.746;2022-09-29T03:28:55;90063.47;;;11.82;58.24
46778;BME280;32536;47.128;8.746;2022-09-29T03:31:22;90054.25;;;11.83;58.57
46778;BME280;32536;47.128;8.746;2022-09-29T03:33:49;90048.41;;;11.84;58.67
46778;BME280;32536;47.128;8.746;2022-09-29T03:36:15;90045.28;;;11.86;58.86
46778;BME280;32536;47.128;8.746;2022-09-29T03:38:42;90047.81;;;11.90;58.56
46778;BME280;32536;47.128;8.746;2022-09-29T03:41:11;90045.72;;;11.94;58.24
46778;BME280;32536;47.128;8.746;2022-09-29T03:43:38;90044.38;;;11.98;58.47
46778;BME280;32536;47.128;8.746;2022-09-29T03:46:05;90034.97;;;12.03;58.45
46778;BME280;32536;47.128;8.746;2022-09-29T03:48:31;90037.03;;;12.08;58.15
46778;BME280;32536;47.128;8.746;2022-09-29T03:51:00;90036.16;;;12.11;58.68
46778;BME280;32536;47.128;8.746;2022-09-29T03:53:27;90030.31;;;12.13;58.25
46778;BME280;32536;47.128;8.746;2022-09-29T03:55:54;90036.72;;;12.15;58.50
46778;BME280;32536;47.128;8.746;2022-09-29T03:58:20;90044.03;;;12.15;58.08
46778;BME280;32536;47.128;8.746;2022-09-29T04:00:47;90042.09;;;12.15;57.75
46778;BME280;32536;47.128;8.746;2022-09-29T04:03:14;90036.28;;;12.17;57.91
46778;BME280;32536;47.128;8.746;2022-09-29T04:05:44;90040.59;;;12.14;57.33
46778;BME280;32536;47.128;8.746;2022-09-29T04:08:11;90041.81;;;12.13;57.70
46778;BME280;32536;47.128;8.746;2022-09-29T04:10:39;90042.25;;;12.12;57.80
46778;BME280;32536;47.128;8.746;2022-09-29T04:13:07;90045.38;;;12.10;57.42
46778;BME280;32536;47.128;8.746;2022-09-29T04:15:34;90058.06;;;12.10;57.03
46778;BME280;32536;47.128;8.746;2022-09-29T04:18:01;90045.56;;;12.07;57.27
46778;BME280;32536;47.128;8.746;2022-09-29T04:20:28;90052.41;;;12.08;57.13
46778;BME280;32536;47.128;8.746;2022-09-29T04:22:54;90049.16;;;12.04;57.46
46778;BME280;32536;47.128;8.746;2022-09-29T04:25:21;90051.53;;;12.01;57.72
46778;BME280;32536;47.128;8.746;2022-09-29T04:27:48;90053.47;;;12.01;57.92
46778;BME280;32536;47.128;8.746;2022-09-29T04:30:16;90052.56;;;12.04;57.87
46778;BME280;32536;47.128;8.746;2022-09-29T04:32:43;90054.06;;;12.05;57.77
46778;BME280;32536;47.128;8.746;2022-09-29T04:35:10;90056.75;;;12.05;57.87
46778;BME280;32536;47.128;8.746;2022-09-29T04:37:37;90056.28;;;12.07;57.99
46778;BME280;32536;47.128;8.746;2022-09-29T04:40:04;90055.09;;;12.08;57.80
46778;BME280;32536;47.128;8.746;2022-09-29T04:42:31;90057.78;;;12.08;57.30
46778;BME280;32536;47.128;8.746;2022-09-29T04:44:58;90064.34;;;12.07;57.44
46778;BME280;32536;47.128;8.746;2022-09-29T04:47:25;90064.34;;;12.07;57.59
46778;BME280;32536;47.128;8.746;2022-09-29T04:49:52;90055.81;;;12.08;57.66
46778;BME280;32536;47.128;8.746;2022-09-29T04:52:18;90061.19;;;12.08;57.44
46778;BME280;32536;47.128;8.746;2022-09-29T04:54:45;90060.47;;;12.08;57.34
46778;BME280;32536;47.128;8.746;2022-09-29T04:57:12;90062.13;;;12.05;57.76
46778;BME280;32536;47.128;8.746;2022-09-29T04:59:39;90068.38;;;12.02;57.79
46778;BME280;32536;47.128;8.746;2022-09-29T05:02:05;90069.13;;;12.03;58.27
46778;BME280;32536;47.128;8.746;2022-09-29T05:04:33;90063.31;;;12.04;58.14
46778;BME280;32536;47.128;8.746;2022-09-29T05:06:59;90066.44;;;12.03;58.60
46778;BME280;32536;47.128;8.746;2022-09-29T05:09:26;90063.00;;;12.02;58.56
46778;BME280;32536;47.128;8.746;2022-09-29T05:11:53;90074.03;;;12.04;58.14
46778;BME280;32536;47.128;8.746;2022-09-29T05:14:19;90069.13;;;12.03;58.64
46778;BME280;32536;47.128;8.746;2022-09-29T05:16:46;90072.09;;;12.05;58.08
46778;BME280;32536;47.128;8.746;2022-09-29T05:19:13;90076.56;;;12.08;58.54
46778;BME280;32536;47.128;8.746;2022-09-29T05:21:40;90079.81;;;12.12;57.90
46778;BME280;32536;47.128;8.746;2022-09-29T05:24:06;90087.00;;;12.15;58.09
46778;BME280;32536;47.128;8.746;2022-09-29T05:26:33;90089.97;;;12.17;58.03
46778;BME280;32536;47.128;8.746;2022-09-29T05:29:00;90083.84;;;12.16;57.89
46778;BME280;32536;47.128;8.746;2022-09-29T05:31:27;90089.22;;;12.16;58.32
46778;BME280;32536;47.128;8.746;2022-09-29T05:33:55;90092.06;;;12.13;58.20
46778;BME280;32536;47.128;8.746;2022-09-29T05:36:22;90092.22;;;12.09;58.23
46778;BME280;32536;47.128;8.746;2022-09-29T05:38:49;90091.63;;;12.05;58.41
46778;BME280;32536;47.128;8.746;2022-09-29T05:41:16;90095.50;;;12.04;58.37
46778;BME280;32536;47.128;8.746;2022-09-29T05:43:48;90092.09;;;12.04;58.53
46778;BME280;32536;47.128;8.746;2022-09-29T05:46:16;90097.47;;;12.04;58.25
46778;BME280;32536;47.128;8.746;2022-09-29T05:48:47;90101.03;;;12.00;58.40
46778;BME280;32536;47.128;8.746;2022-09-29T05:51:17;90097.31;;;11.98;58.39
46778;BME280;32536;47.128;8.746;2022-09-29T05:53:46;90099.81;;;11.92;58.26
46778;BME280;32536;47.128;8.746;2022-09-29T05:56:15;90092.84;;;11.85;58.15
46778;BME280;32536;47.128;8.746;2022-09-29T05:58:52;90101.94;;;11.79;58.69
46778;BME280;32536;47.128;8.746;2022-09-29T06:01:24;90100.88;;;11.76;58.85
46778;BME280;32536;47.128;8.746;2022-09-29T06:03:54;90098.66;;;11.75;58.60
46778;BME280;32536;47.128;8.746;2022-09-29T06:06:27;90099.53;;;11.72;59.01
46778;BME280;32536;47.128;8.746;2022-09-29T06:08:56;90097.31;;;11.70;58.71
46778;BME280;32536;47.128;8.746;2022-09-29T06:11:26;90094.78;;;11.66;59.00
46778;BME280;32536;47.128;8.746;2022-09-29T06:13:54;90099.13;;;11.64;59.07
46778;BME280;32536;47.128;8.746;2022-09-29T06:16:26;90094.34;;;11.59;59.31
46778;BME280;32536;47.128;8.746;2022-09-29T06:18:54;90095.25;;;11.56;59.36
46778;BME280;32536;47.128;8.746;2022-09-29T06:21:23;90103.75;;;11.54;58.79
46778;BME280;32536;47.128;8.746;2022-09-29T06:23:53;90101.50;;;11.52;58.81
46778;BME280;32536;47.128;8.746;2022-09-29T06:26:21;90090.03;;;11.52;59.25
46778;BME280;32536;47.128;8.746;2022-09-29T06:28:48;90102.25;;;11.53;58.91
46778;BME280;32536;47.128;8.746;2022-09-29T06:31:18;90091.97;;;11.51;58.97
46778;BME280;32536;47.128;8.746;2022-09-29T06:33:46;90093.47;;;11.52;58.78
46778;BME280;32536;47.128;8.746;2022-09-29T06:36:19;90089.16;;;11.55;59.15
46778;BME280;32536;47.128;8.746;2022-09-29T06:39:11;90097.78;;;11.59;59.06
46778;BME280;32536;47.128;8.746;2022-09-29T06:41:38;90095.84;;;11.60;59.11
46778;BME280;32536;47.128;8.746;2022-09-29T06:44:06;90098.22;;;11.58;58.63
46778;BME280;32536;47.128;8.746;2022-09-29T06:46:33;90093.59;;;11.58;58.92
46778;BME280;32536;47.128;8.746;2022-09-29T06:49:00;90099.72;;;11.59;59.00
46778;BME280;32536;47.128;8.746;2022-09-29T06:51:27;90094.50;;;11.55;59.11
46778;BME280;32536;47.128;8.746;2022-09-29T06:53:54;90093.47;;;11.52;58.79
46778;BME280;32536;47.128;8.746;2022-09-29T06:56:21;90097.03;;;11.49;59.26
46778;BME280;32536;47.128;8.746;2022-09-29T06:58:48;90105.06;;;11.49;58.72
46778;BME280;32536;47.128;8.746;2022-09-29T07:01:14;90106.25;;;11.48;59.10
46778;BME280;32536;47.128;8.746;2022-09-29T07:03:41;90113.44;;;11.51;59.30
46778;BME280;32536;47.128;8.746;2022-09-29T07:06:09;90106.88;;;11.52;59.27
46778;BME280;32536;47.128;8.746;2022-09-29T07:08:36;90104.78;;;11.57;59.08
46778;BME280;32536;47.128;8.746;2022-09-29T07:11:06;90114.78;;;11.56;58.83
46778;BME280;32536;47.128;8.746;2022-09-29T07:13:33;90114.31;;;11.58;58.86
46778;BME280;32536;47.128;8.746;2022-09-29T07:16:08;90111.47;;;11.52;59.03
46778;BME280;32536;47.128;8.746;2022-09-29T07:18:39;90100.47;;;11.41;58.70
46778;BME280;32536;47.128;8.746;2022-09-29T07:21:08;90111.94;;;11.32;59.53
46778;BME280;32536;47.128;8.746;2022-09-29T07:23:37;90104.94;;;11.34;59.53
46778;BME280;32536;47.128;8.746;2022-09-29T07:26:05;90107.78;;;11.40;59.33
46778;BME280;32536;47.128;8.746;2022-09-29T07:28:33;90110.72;;;11.42;59.16
46778;BME280;32536;47.128;8.746;2022-09-29T07:31:03;90116.84;;;11.43;59.42
46778;BME280;32536;47.128;8.746;2022-09-29T07:33:32;90121.19;;;11.40;58.64
46778;BME280;32536;47.128;8.746;2022-09-29T07:35:59;90119.69;;;11.39;59.59
46778;BME280;32536;47.128;8.746;2022-09-29T07:38:27;90120.41;;;11.40;59.00
46778;BME280;32536;47.128;8.746;2022-09-29T07:41:02;90130.09;;;11.37;59.13
46778;BME280;32536;47.128;8.746;2022-09-29T07:43:30;90121.00;;;11.34;59.81
46778;BME280;32536;47.128;8.746;2022-09-29T07:45:57;90124.88;;;11.33;59.89
46778;BME280;32536;47.128;8.746;2022-09-29T07:48:27;90129.78;;;11.35;59.03
46778;BME280;32536;47.128;8.746;2022-09-29T07:51:15;90126.53;;;11.40;60.10
46778;BME280;32536;47.128;8.746;2022-09-29T07:53:44;90139.81;;;11.44;59.16
46778;BME280;32536;47.128;8.746;2022-09-29T07:56:16;90134.44;;;11.44;59.16
46778;BME280;32536;47.128;8.746;2022-09-29T07:58:45;90139.63;;;11.47;59.52
46778;BME280;32536;47.128;8.746;2022-09-29T08:01:13;90141.88;;;11.49;59.18
46778;BME280;32536;47.128;8.746;2022-09-29T08:03:43;90133.38;;;11.50;59.25
46778;BME280;32536;47.128;8.746;2022-09-29T08:06:17;90135.91;;;11.54;59.72
46778;BME280;32536;47.128;8.746;2022-09-29T08:08:45;90138.28;;;11.52;58.92
46778;BME280;32536;47.128;8.746;2022-09-29T08:11:15;90132.94;;;11.52;59.19
46778;BME280;32536;47.128;8.746;2022-09-29T08:13:46;90146.34;;;11.52;59.50
46778;BME280;32536;47.128;8.746;2022-09-29T08:16:13;90155.91;;;11.44;59.38
46778;BME280;32536;47.128;8.746;2022-09-29T08:18:41;90152.59;;;11.40;59.63
46778;BME280;32536;47.128;8.746;2022-09-29T08:21:10;90156.03;;;11.40;59.08
46778;BME280;32536;47.128;8.746;2022-09-29T08:23:40;90156.03;;;11.40;59.26
46778;BME280;32536;47.128;8.746;2022-09-29T08:26:10;90156.47;;;11.38;59.68
46778;BME280;32536;47.128;8.746;2022-09-29T08:28:40;90162.00;;;11.44;59.18
46778;BME280;32536;47.128;8.746;2022-09-29T08:31:19;90160.03;;;11.45;59.47
46778;BME280;32536;47.128;8.746;2022-09-29T08:33:50;90166.44;;;11.47;60.03
46778;BME280;32536;47.128;8.746;2022-09-29T08:36:18;90166.75;;;11.49;59.47
46778;BME280;32536;47.128;8.746;2022-09-29T08:38:51;90175.84;;;11.52;59.74
46778;BME280;32536;47.128;8.746;2022-09-29T08:44:13;90177.22;;;11.66;59.62
46778;BME280;32536;47.128;8.746;2022-09-29T08:46:49;90173.78;;;11.75;59.34
46778;BME280;32536;47.128;8.746;2022-09-29T08:49:58;90176.00;;;11.76;59.10
46778;BME280;32536;47.128;8.746;2022-09-29T08:52:30;90183.44;;;11.81;58.99
46778;BME280;32536;47.128;8.746;2022-09-29T08:57:41;90190.78;;;11.90;58.99
46778;BME280;32536;47.128;8.746;2022-09-29T09:00:11;90190.91;;;11.96;58.92
46778;BME280;32536;47.128;8.746;2022-09-29T09:06:18;90202.56;;;11.93;58.80
46778;BME280;32536;47.128;8.746;2022-09-29T09:20:32;90210.59;;;11.83;58.96
46778;BME280;32536;47.128;8.746;2022-09-29T09:23:19;90212.81;;;11.85;58.69
46778;BME280;32536;47.128;8.746;2022-09-29T09:25:54;90216.53;;;11.88;58.65
46778;BME280;32536;47.128;8.746;2022-09-29T09:28:42;90210.59;;;11.83;58.64
46778;BME280;32536;47.128;8.746;2022-09-29T09:31:23;90210.00;;;11.79;58.33
46778;BME280;32536;47.128;8.746;2022-09-29T09:34:04;90218.94;;;11.76;58.63
46778;BME280;32536;47.128;8.746;2022-09-29T09:36:56;90218.63;;;11.74;58.70
46778;BME280;32536;47.128;8.746;2022-09-29T09:39:56;90218.78;;;11.71;58.50
46778;BME280;32536;47.128;8.746;2022-09-29T09:42:30;90217.44;;;11.66;58.60
46778;BME280;32536;47.128;8.746;2022-09-29T09:45:07;90216.69;;;11.65;59.24
46778;BME280;32536;47.128;8.746;2022-09-29T09:47:39;90220.72;;;11.70;59.11
46778;BME280;32536;47.128;8.746;2022-09-29T09:50:14;90223.56;;;11.76;58.98
46778;BME280;32536;47.128;8.746;2022-09-29T09:53:02;90230.69;;;11.79;59.48
46778;BME280;32536;47.128;8.746;2022-09-29T09:55:34;90217.28;;;11.79;58.91
46778;BME280;32536;47.128;8.746;2022-09-29T10:01:08;90224.91;;;11.71;58.97
46778;BME280;32536;47.128;8.746;2022-09-29T10:03:37;90225.63;;;11.72;58.92
46778;BME280;32536;47.128;8.746;2022-09-29T10:06:06;90216.13;;;11.71;58.83
46778;BME280;32536;47.128;8.746;2022-09-29T10:08:38;90228.03;;;11.69;59.42
46778;BME280;32536;47.128;8.746;2022-09-29T10:11:26;90233.09;;;11.67;59.14
46778;BME280;32536;47.128;8.746;2022-09-29T10:14:08;90226.53;;;11.68;59.00
46778;BME280;32536;47.128;8.746;2022-09-29T10:17:02;90228.31;;;11.72;59.02
46778;BME280;32536;47.128;8.746;2022-09-29T10:19:52;90228.44;;;11.68;59.23
46778;BME280;32536;47.128;8.746;2022-09-29T10:22:19;90231.13;;;11.68;58.98
46778;BME280;32536;47.128;8.746;2022-09-29T10:24:46;90231.91;;;11.68;59.27
46778;BME280;32536;47.128;8.746;2022-09-29T10:27:21;90231.28;;;11.64;59.44
46778;BME280;32536;47.128;8.746;2022-09-29T10:29:52;90238.91;;;11.66;59.22
46778;BME280;32536;47.128;8.746;2022-09-29T10:32:25;90235.75;;;11.58;59.00
46778;BME280;32536;47.128;8.746;2022-09-29T10:35:16;90247.97;;;11.59;59.05
46778;BME280;32536;47.128;8.746;2022-09-29T10:37:58;90248.28;;;11.61;59.67
46778;BME280;32536;47.128;8.746;2022-09-29T10:40:54;90251.41;;;11.69;59.17
46778;BME280;32536;47.128;8.746;2022-09-29T10:43:42;90250.09;;;11.74;58.90
46778;BME280;32536;47.128;8.746;2022-09-29T10:49:19;90246.94;;;11.75;58.79
46778;BME280;32536;47.128;8.746;2022-09-29T10:52:05;90246.66;;;11.73;59.00
46778;BME280;32536;47.128;8.746;2022-09-29T10:54:56;90246.94;;;11.75;58.87
46778;BME280;32536;47.128;8.746;2022-09-29T10:57:30;90241.72;;;11.72;58.84
46778;BME280;32536;47.128;8.746;2022-09-29T10:59:58;90249.03;;;11.71;58.95
46778;BME280;32536;47.128;8.746;2022-09-29T11:02:34;90251.56;;;11.75;59.39
46778;BME280;32536;47.128;8.746;2022-09-29T11:05:16;90259.63;;;11.75;59.04
46778;BME280;32536;47.128;8.746;2022-09-29T11:07:49;90257.81;;;11.72;58.74
46778;BME280;32536;47.128;8.746;2022-09-29T11:10:37;90255.44;;;11.74;58.90
46778;BME280;32536;47.128;8.746;2022-09-29T11:15:50;90264.69;;;11.73;58.89
46778;BME280;32536;47.128;8.746;2022-09-29T11:18:37;90259.91;;;11.67;58.63
46778;BME280;32536;47.128;8.746;2022-09-29T11:24:09;90269.56;;;11.46;59.80
46778;BME280;32536;47.128;8.746;2022-09-29T11:27:17;90261.50;;;11.46;60.03
46778;BME280;32536;47.128;8.746;2022-09-29T11:30:10;90265.97;;;11.49;59.92
46778;BME280;32536;47.128;8.746;2022-09-29T11:36:03;90268.41;;;11.66;59.88
46778;BME280;32536;47.128;8.746;2022-09-29T11:56:34;90270.50;;;11.71;59.83
46778;BME280;32536;47.128;8.746;2022-09-29T12:06:20;90271.69;;;11.89;59.55
46778;BME280;32536;47.128;8.746;2022-09-29T12:08:17;90266.38;;;11.98;59.57
46778;BME280;32536;47.128;8.746;2022-09-29T12:11:03;90262.50;;;11.99;59.03
46778;BME280;32536;47.128;8.746;2022-09-29T12:13:46;90259.53;;;11.97;59.20
46778;BME280;32536;47.128;8.746;2022-09-29T12:16:20;90256.09;;;11.96;59.67
46778;BME280;32536;47.128;8.746;2022-09-29T12:19:09;90244.78;;;12.01;59.53
46778;BME280;32536;47.128;8.746;2022-09-29T12:21:41;90239.56;;;12.07;59.54
46778;BME280;32536;47.128;8.746;2022-09-29T12:24:19;90248.66;;;12.10;59.87
46778;BME280;32536;47.128;8.746;2022-09-29T12:26:49;90243.72;;;12.08;59.51
46778;BME280;32536;47.128;8.746;2022-09-29T12:29:31;90244.31;;;12.03;59.88
46778;BME280;32536;47.128;8.746;2022-09-29T12:32:04;90245.66;;;11.98;59.57
46778;BME280;32536;47.128;8.746;2022-09-29T12:37:57;90253.41;;;12.06;59.52
46778;BME280;32536;47.128;8.746;2022-09-29T12:43:50;90249.25;;;12.23;59.68
46778;BME280;32536;47.128;8.746;2022-09-29T12:46:34;90253.88;;;12.32;59.34
46778;BME280;32536;47.128;8.746;2022-09-29T12:49:30;90264.16;;;12.43;58.57
46778;BME280;32536;47.128;8.746;2022-09-29T12:52:12;90264.28;;;12.48;59.16
46778;BME280;32536;47.128;8.746;2022-09-29T12:55:04;90257.25;;;12.51;58.98
46778;BME280;32536;47.128;8.746;2022-09-29T12:57:38;90261.00;;;12.54;59.10
46778;BME280;32536;47.128;8.746;2022-09-29T13:00:11;90258.31;;;12.54;59.38
46778;BME280;32536;47.128;8.746;2022-09-29T13:17:33;90255.44;;;12.76;59.04
46778;BME280;32536;47.128;8.746;2022-09-29T13:20:40;90258.59;;;12.74;58.64
46778;BME280;32536;47.128;8.746;2022-09-29T13:23:29;90266.47;;;12.78;59.22
46778;BME280;32536;47.128;8.746;2022-09-29T13:28:55;90258.25;;;12.91;59.02
46778;BME280;32536;47.128;8.746;2022-09-29T13:31:27;90257.91;;;12.98;58.74
46778;BME280;32536;47.128;8.746;2022-09-29T13:33:59;90260.44;;;13.02;58.80
46778;BME280;32536;47.128;8.746;2022-09-29T13:36:46;90262.22;;;13.05;58.58
46778;BME280;32536;47.128;8.746;2022-09-29T13:39:23;90266.25;;;13.09;58.60
46778;BME280;32536;47.128;8.746;2022-09-29T13:41:53;90270.25;;;13.14;58.76
46778;BME280;32536;47.128;8.746;2022-09-29T13:44:22;90270.25;;;13.14;58.63
46778;BME280;32536;47.128;8.746;2022-09-29T13:46:52;90272.06;;;13.17;58.43
46778;BME280;32536;47.128;8.746;2022-09-29T13:51:51;90272.16;;;13.23;58.49
46778;BME280;32536;47.128;8.746;2022-09-29T13:54:35;90276.66;;;13.26;58.46
46778;BME280;32536;47.128;8.746;2022-09-29T13:59:39;90275.63;;;13.14;58.51
46778;BME280;32536;47.128;8.746;2022-09-29T14:02:42;90279.25;;;13.11;58.33
46778;BME280;32536;47.128;8.746;2022-09-29T14:13:17;90275.97;;;13.07;58.76
46778;BME280;32536;47.128;8.746;2022-09-29T14:16:03;90285.81;;;13.10;58.92
46778;BME280;32536;47.128;8.746;2022-09-29T14:18:36;90289.38;;;13.16;58.61
46778;BME280;32536;47.128;8.746;2022-09-29T14:21:43;90283.53;;;13.18;58.67
46778;BME280;32536;47.128;8.746;2022-09-29T14:27:32;90282.56;;;12.96;58.77
46778;BME280;32536;47.128;8.746;2022-09-29T14:38:23;90293.03;;;12.85;58.71
46778;BME280;32536;47.128;8.746;2022-09-29T14:43:41;90298.25;;;12.98;58.84
46778;BME280;32536;47.128;8.746;2022-09-29T14:53:35;90302.53;;;13.14;58.60
46778;BME280;32536;47.128;8.746;2022-09-29T14:58:59;90296.38;;;13.23;58.40
46778;BME280;32536;47.128;8.746;2022-09-29T15:02:17;90300.69;;;13.29;58.42
46778;BME280;32536;47.128;8.746;2022-09-29T15:04:47;90305.31;;;13.38;58.35
46778;BME280;32536;47.128;8.746;2022-09-29T15:07:17;90303.19;;;13.42;58.18
46778;BME280;32536;47.128;8.746;2022-09-29T15:09:49;90300.81;;;13.44;58.18
46778;BME280;32536;47.128;8.746;2022-09-29T15:12:27;90310.25;;;13.40;58.17
46778;BME280;32536;47.128;8.746;2022-09-29T15:14:57;90311.72;;;13.41;58.22
46778;BME280;32536;47.128;8.746;2022-09-29T15:20:31;90305.63;;;13.31;58.11
46778;BME280;32536;47.128;8.746;2022-09-29T15:26:13;90303.97;;;13.34;58.27
46778;BME280;32536;47.128;8.746;2022-09-29T15:28:41;90309.03;;;13.32;58.56
46778;BME280;32536;47.128;8.746;2022-09-29T15:31:15;90307.84;;;13.33;58.37
46778;BME280;32536;47.128;8.746;2022-09-29T15:33:44;90309.50;;;13.39;58.48
46778;BME280;32536;47.128;8.746;2022-09-29T15:36:28;90310.06;;;13.43;58.39
46778;BME280;32536;47.128;8.746;2022-09-29T15:39:05;90316.31;;;13.50;58.38
46778;BME280;32536;47.128;8.746;2022-09-29T15:41:58;90319.16;;;13.55;57.96
46778;BME280;32536;47.128;8.746;2022-09-29T15:44:27;90322.13;;;13.57;58.48
46778;BME280;32536;47.128;8.746;2022-09-29T15:46:59;90320.91;;;13.58;58.47
46778;BME280;32536;47.128;8.746;2022-09-29T15:49:27;90324.38;;;13.59;58.46
46778;BME280;32536;47.128;8.746;2022-09-29T15:52:04;90322.13;;;13.57;58.49
46778;BME280;32536;47.128;8.746;2022-09-29T15:54:34;90324.06;;;13.57;58.24
46778;BME280;32536;47.128;8.746;2022-09-29T15:57:05;90322.31;;;13.54;58.23
46778;BME280;32536;47.128;8.746;2022-09-29T15:59:52;90333.34;;;13.56;58.22
46778;BME280;32536;47.128;8.746;2022-09-29T16:02:36;90345.59;;;13.57;57.95
46778;BME280;32536;47.128;8.746;2022-09-29T16:05:12;90338.13;;;13.61;57.85